Time;durP1;ratioP1;P1;durP2;ratioP2;P2;SDS_P1;SDS_P2;PMS_P1;PMS_P2;Temp;Humidity;BMP_temperature;BMP_pressure;BME280_temperature;BME280_humidity;BME280_pressure;Samples;Min_cycle;Max_cycle;Signal;HPM_P1;HPM_P2
2021/10/01 00:00:09;;;;;;;2.67;2.57;;;13.70;96.30;;;;;;4993441;28;20418;-67
2021/10/01 00:02:35;;;;;;;3.47;2.80;;;13.70;95.50;;;;;;4993429;28;20176;-67
2021/10/01 00:05:01;;;;;;;3.30;2.60;;;13.80;94.90;;;;;;4991502;28;21011;-67
2021/10/01 00:07:28;;;;;;;2.70;2.60;;;13.80;94.40;;;;;;4993729;28;20663;-67
2021/10/01 00:09:54;;;;;;;2.77;2.53;;;13.70;94.40;;;;;;4992942;28;20513;-67
2021/10/01 00:12:19;;;;;;;2.70;2.50;;;13.60;94.50;;;;;;4993970;28;20840;-67
2021/10/01 00:14:45;;;;;;;2.77;2.53;;;13.60;94.50;;;;;;4993023;28;20190;-73
2021/10/01 00:17:11;;;;;;;4.47;2.30;;;13.60;94.80;;;;;;4993486;28;20666;-67
2021/10/01 00:19:38;;;;;;;2.73;2.50;;;13.60;95.10;;;;;;4993626;28;20788;-67
2021/10/01 00:22:04;;;;;;;2.20;2.07;;;13.60;95.10;;;;;;4992791;28;20948;-67
2021/10/01 00:24:32;;;;;;;2.60;2.40;;;13.60;94.60;;;;;;4993544;28;20402;-67
2021/10/01 00:26:58;;;;;;;3.40;3.03;;;13.50;94.70;;;;;;4993021;28;20437;-67
2021/10/01 00:29:24;;;;;;;3.63;2.40;;;13.50;94.60;;;;;;4993415;28;20414;-66
2021/10/01 00:31:50;;;;;;;2.67;2.47;;;13.40;94.70;;;;;;4992624;28;20922;-68
2021/10/01 00:34:16;;;;;;;3.70;2.97;;;13.40;95.10;;;;;;4993487;28;20178;-67
2021/10/01 00:36:42;;;;;;;2.83;2.63;;;13.40;95.00;;;;;;5004203;28;20544;-67
2021/10/01 00:39:08;;;;;;;2.90;2.70;;;13.50;95.00;;;;;;5011772;28;20432;-67
2021/10/01 00:41:36;;;;;;;2.70;2.50;;;13.40;94.80;;;;;;5013084;28;20649;-67
2021/10/01 00:44:03;;;;;;;2.80;2.60;;;13.40;94.90;;;;;;5012044;28;20422;-67
2021/10/01 00:46:29;;;;;;;3.03;2.80;;;13.20;95.00;;;;;;5012860;28;20405;-67
2021/10/01 00:48:55;;;;;;;4.33;3.10;;;13.20;96.10;;;;;;5011973;28;20428;-67
2021/10/01 00:51:24;;;;;;;5.27;2.60;;;13.20;95.30;;;;;;5011491;28;20456;-67
2021/10/01 00:53:51;;;;;;;2.30;2.20;;;13.20;95.70;;;;;;5012167;28;20455;-73
2021/10/01 00:56:21;;;;;;;2.27;2.13;;;13.20;95.60;;;;;;4999990;28;20850;-67
2021/10/01 00:58:47;;;;;;;3.00;2.50;;;13.20;95.50;;;;;;4992849;28;20418;-73
2021/10/01 01:01:13;;;;;;;4.23;2.60;;;13.20;95.60;;;;;;4992557;28;20411;-66
2021/10/01 01:03:55;;;;;;;3.17;2.30;;;13.20;95.50;;;;;;4992559;28;20797;-67
2021/10/01 01:06:24;;;;;;;2.30;2.20;;;13.00;95.60;;;;;;4993035;28;20193;-67
2021/10/01 01:09:14;;;;;;;2.97;2.27;;;13.00;96.20;;;;;;4992430;28;20436;-73
2021/10/01 01:12:08;;;;;;;2.30;2.20;;;12.90;96.00;;;;;;4992584;28;20439;-67
2021/10/01 01:14:53;;;;;;;3.47;2.60;;;13.00;96.00;;;;;;4992829;28;20409;-67
2021/10/01 01:17:59;;;;;;;4.30;2.40;;;13.00;95.90;;;;;;4973543;28;20483;-67
2021/10/01 01:20:52;;;;;;;3.03;2.57;;;13.00;95.60;;;;;;4879263;29;20425;-67
2021/10/01 01:23:38;;;;;;;2.27;2.17;;;13.00;95.90;;;;;;4894847;29;20493;-67
2021/10/01 01:26:37;;;;;;;2.47;2.33;;;13.00;95.70;;;;;;4964113;28;20779;-67
2021/10/01 01:29:34;;;;;;;2.67;2.47;;;13.00;95.80;;;;;;4992068;28;20935;-67
2021/10/01 01:32:01;;;;;;;2.57;2.47;;;12.90;95.70;;;;;;4991919;28;20912;-67
2021/10/01 01:34:39;;;;;;;2.70;2.50;;;12.90;96.40;;;;;;4992439;28;20418;-67
2021/10/01 01:37:11;;;;;;;3.80;2.83;;;13.00;96.10;;;;;;4991841;28;20991;-67
2021/10/01 01:39:38;;;;;;;2.70;2.53;;;13.00;95.80;;;;;;4992497;28;20788;-67
2021/10/01 01:42:05;;;;;;;2.60;2.50;;;12.90;95.90;;;;;;4972405;28;20515;-67
2021/10/01 01:44:33;;;;;;;3.17;2.40;;;12.90;96.10;;;;;;4955988;28;20413;-67
2021/10/01 01:47:01;;;;;;;2.93;2.63;;;12.90;96.00;;;;;;4972348;28;20437;-67
2021/10/01 01:49:30;;;;;;;4.83;2.47;;;12.80;96.20;;;;;;4973032;28;20421;-68
2021/10/01 01:51:57;;;;;;;5.03;2.43;;;12.90;96.00;;;;;;4972250;28;20446;-67
2021/10/01 01:54:25;;;;;;;5.07;2.50;;;12.90;95.90;;;;;;4973085;28;20422;-68
2021/10/01 01:56:53;;;;;;;4.93;2.40;;;13.00;95.90;;;;;;4974618;28;20913;-74
2021/10/01 01:59:20;;;;;;;2.70;2.50;;;13.10;96.00;;;;;;4992505;28;20493;-67
2021/10/01 02:01:48;;;;;;;4.30;2.70;;;13.10;95.70;;;;;;4992360;28;20484;-67
2021/10/01 02:04:15;;;;;;;2.60;2.33;;;13.10;96.40;;;;;;4991459;28;20994;-67
2021/10/01 02:06:44;;;;;;;3.27;2.70;;;13.10;96.00;;;;;;4992440;28;20425;-67
2021/10/01 02:09:11;;;;;;;2.50;2.40;;;13.20;95.50;;;;;;4991363;28;21309;-67
2021/10/01 02:11:38;;;;;;;4.00;3.27;;;13.20;95.80;;;;;;4992325;28;20409;-67
2021/10/01 02:14:06;;;;;;;2.70;2.50;;;13.20;95.50;;;;;;4991604;28;20415;-67
2021/10/01 02:16:32;;;;;;;2.80;2.60;;;13.20;95.30;;;;;;4992309;28;20825;-67
2021/10/01 02:19:00;;;;;;;4.43;2.50;;;13.20;95.30;;;;;;4991425;28;20768;-68
2021/10/01 02:21:28;;;;;;;4.30;2.90;;;13.10;95.30;;;;;;4992016;28;20478;-67
2021/10/01 02:23:54;;;;;;;2.87;2.53;;;13.10;95.70;;;;;;4991731;28;20406;-73
2021/10/01 02:26:35;;;;;;;3.07;2.77;;;13.00;96.00;;;;;;4995487;28;20963;-67
2021/10/01 02:29:23;;;;;;;2.00;1.90;;;13.10;95.60;;;;;;4994943;28;20406;-67
2021/10/01 02:32:22;;;;;;;4.03;2.63;;;13.00;95.50;;;;;;4995251;28;20416;-67
2021/10/01 02:34:49;;;;;;;2.33;2.20;;;12.90;95.70;;;;;;4994994;28;20461;-67
2021/10/01 02:37:16;;;;;;;3.37;2.20;;;13.10;96.00;;;;;;4994649;28;20465;-67
2021/10/01 02:39:46;;;;;;;2.93;2.63;;;13.20;96.10;;;;;;4995203;28;20505;-67
2021/10/01 02:42:13;;;;;;;2.53;2.43;;;13.30;97.60;;;;;;4994670;28;20469;-67
2021/10/01 02:44:41;;;;;;;2.10;2.00;;;13.40;96.30;;;;;;4995382;28;20450;-67
2021/10/01 02:47:07;;;;;;;2.03;1.80;;;13.50;95.90;;;;;;4994330;28;20815;-67
2021/10/01 02:49:34;;;;;;;3.03;2.17;;;13.50;94.80;;;;;;4995357;28;20410;-67
2021/10/01 02:52:11;;;;;;;2.70;2.50;;;13.60;94.70;;;;;;4994332;28;20412;-67
2021/10/01 02:55:02;;;;;;;2.70;1.90;;;13.70;94.80;;;;;;4995106;28;20413;-67
2021/10/01 02:57:42;;;;;;;2.30;2.20;;;13.60;94.20;;;;;;4994130;28;20509;-67
2021/10/01 03:00:09;;;;;;;3.33;2.70;;;13.30;94.70;;;;;;4994379;28;20472;-67
2021/10/01 03:02:38;;;;;;;2.60;2.50;;;13.20;95.30;;;;;;4988652;28;20418;-67
2021/10/01 03:05:04;;;;;;;3.03;2.83;;;13.20;94.90;;;;;;4974977;28;20454;-68
2021/10/01 03:07:33;;;;;;;2.30;2.10;;;13.00;95.20;;;;;;4992100;28;20436;-66
2021/10/01 03:10:04;;;;;;;4.30;2.20;;;12.90;95.50;;;;;;4992264;28;20438;-68
2021/10/01 03:12:31;;;;;;;3.70;3.40;;;12.80;95.60;;;;;;4993949;28;20528;-67
2021/10/01 03:14:57;;;;;;;2.33;2.17;;;12.70;95.90;;;;;;4993855;28;20427;-73
2021/10/01 03:17:24;;;;;;;2.47;2.30;;;12.70;96.10;;;;;;4976945;28;20455;-67
2021/10/01 03:19:51;;;;;;;2.60;2.40;;;12.70;96.40;;;;;;4975056;28;20419;-67
2021/10/01 03:22:18;;;;;;;3.53;3.23;;;12.70;96.50;;;;;;4980290;28;20418;-67
2021/10/01 03:24:45;;;;;;;3.40;2.90;;;12.90;97.10;;;;;;4994032;28;20779;-67
2021/10/01 03:27:11;;;;;;;2.60;2.50;;;13.00;96.00;;;;;;4993864;28;20774;-67
2021/10/01 03:29:38;;;;;;;3.10;2.90;;;12.90;95.50;;;;;;4977087;28;20424;-67
2021/10/01 03:32:04;;;;;;;3.17;3.07;;;13.10;96.40;;;;;;4992094;28;20422;-68
2021/10/01 03:34:30;;;;;;;7.10;4.23;;;13.00;95.40;;;;;;4993940;28;20475;-67
2021/10/01 03:36:56;;;;;;;3.20;2.87;;;13.10;95.50;;;;;;4993172;28;20474;-73
2021/10/01 03:39:22;;;;;;;3.70;3.50;;;13.10;95.70;;;;;;4981380;28;20428;-67
2021/10/01 03:41:50;;;;;;;6.33;4.97;;;13.00;95.30;;;;;;4994254;28;20776;-66
2021/10/01 03:44:16;;;;;;;3.87;3.67;;;13.10;97.10;;;;;;4991154;28;21260;-67
2021/10/01 03:46:41;;;;;;;5.03;3.90;;;13.20;96.40;;;;;;4984176;28;20427;-67
2021/10/01 03:49:07;;;;;;;4.57;3.90;;;13.30;96.00;;;;;;4989043;28;20425;-67
2021/10/01 03:51:33;;;;;;;6.77;6.17;;;13.40;95.40;;;;;;4986443;28;20524;-67
2021/10/01 03:53:59;;;;;;;3.80;3.60;;;13.30;95.30;;;;;;4975974;28;20182;-67
2021/10/01 03:56:25;;;;;;;5.63;3.73;;;13.30;94.90;;;;;;4986859;28;20234;-67
2021/10/01 03:58:51;;;;;;;3.83;3.53;;;13.40;95.10;;;;;;4993468;28;20425;-67
2021/10/01 04:01:17;;;;;;;3.40;3.10;;;13.40;96.10;;;;;;4992902;28;20481;-67
2021/10/01 04:03:43;;;;;;;3.57;2.83;;;13.40;95.30;;;;;;4998595;28;20222;-67
2021/10/01 04:06:09;;;;;;;3.20;3.00;;;13.40;95.60;;;;;;5002391;28;20431;-67
2021/10/01 04:08:35;;;;;;;4.30;4.10;;;13.60;95.30;;;;;;5013518;28;20421;-67
2021/10/01 04:11:01;;;;;;;4.23;3.93;;;13.60;94.90;;;;;;4997056;28;20409;-67
2021/10/01 04:13:27;;;;;;;3.70;2.70;;;13.70;95.40;;;;;;4998562;28;20440;-67
2021/10/01 04:15:53;;;;;;;3.83;3.53;;;13.70;94.50;;;;;;4999654;28;20413;-67
2021/10/01 04:18:19;;;;;;;2.80;2.50;;;13.90;94.50;;;;;;4996903;28;20215;-66
2021/10/01 04:20:45;;;;;;;3.30;2.20;;;13.80;95.00;;;;;;4993186;28;20414;-66
2021/10/01 04:23:12;;;;;;;2.97;2.70;;;13.80;93.70;;;;;;4994187;28;20178;-66
2021/10/01 04:25:38;;;;;;;7.23;2.47;;;13.80;93.70;;;;;;4998182;28;20422;-66
2021/10/01 04:28:08;;;;;;;6.83;5.20;;;13.80;94.20;;;;;;4998781;28;20510;-66
2021/10/01 04:30:40;;;;;;;3.17;2.90;;;13.90;95.40;;;;;;5004831;28;20178;-67
2021/10/01 04:36:01;;;;;;;6.53;5.93;;;13.90;93.50;;;;;;4983397;28;20445;-74
2021/10/01 04:38:27;;;;;;;2.90;2.70;;;13.90;95.00;;;;;;4996733;28;20455;-66
2021/10/01 04:40:53;;;;;;;2.93;2.73;;;13.90;93.80;;;;;;4995547;28;20409;-67
2021/10/01 04:43:19;;;;;;;3.97;3.67;;;13.90;93.80;;;;;;5012068;28;20934;-67
2021/10/01 04:45:45;;;;;;;5.47;4.57;;;13.80;93.50;;;;;;5008632;28;20419;-67
2021/10/01 04:48:11;;;;;;;4.73;4.33;;;13.70;95.30;;;;;;5011875;28;20757;-67
2021/10/01 04:50:37;;;;;;;3.93;3.23;;;13.80;94.50;;;;;;4994700;28;20418;-67
2021/10/01 04:53:04;;;;;;;4.50;3.73;;;13.80;95.40;;;;;;5011089;28;20183;-67
2021/10/01 04:55:32;;;;;;;3.60;3.30;;;13.90;95.50;;;;;;5011611;28;20433;-67
2021/10/01 04:58:01;;;;;;;4.13;3.17;;;13.90;93.60;;;;;;5000769;28;20953;-68
2021/10/01 05:00:27;;;;;;;5.10;4.67;;;13.80;93.40;;;;;;4996982;28;20434;-68
2021/10/01 05:02:52;;;;;;;5.07;3.33;;;13.80;93.80;;;;;;4999922;28;21005;-67
2021/10/01 05:05:18;;;;;;;4.30;4.00;;;13.80;93.60;;;;;;5010601;28;20186;-68
2021/10/01 05:07:46;;;;;;;2.73;2.53;;;13.80;93.70;;;;;;5008783;28;20186;-68
2021/10/01 05:10:12;;;;;;;3.10;2.90;;;13.90;93.70;;;;;;5002449;28;20535;-68
2021/10/01 05:12:39;;;;;;;4.00;2.40;;;13.90;93.20;;;;;;5010750;28;20414;-69
2021/10/01 05:15:06;;;;;;;4.70;4.33;;;13.90;93.40;;;;;;4997661;28;20822;-68
2021/10/01 05:17:34;;;;;;;7.07;6.47;;;13.70;93.10;;;;;;5011829;28;20475;-68
2021/10/01 05:20:01;;;;;;;3.07;2.77;;;13.70;93.40;;;;;;5012337;28;20505;-76
2021/10/01 05:22:27;;;;;;;2.90;2.20;;;13.80;93.70;;;;;;5011614;28;20428;-68
2021/10/01 05:24:53;;;;;;;2.70;2.60;;;13.90;93.80;;;;;;5010943;28;20461;-70
2021/10/01 05:27:18;;;;;;;3.83;3.63;;;14.00;94.60;;;;;;4999336;28;20449;-70
2021/10/01 05:29:45;;;;;;;2.47;2.37;;;13.90;93.60;;;;;;5012361;28;20661;-68
2021/10/01 05:32:11;;;;;;;5.40;5.00;;;14.00;92.90;;;;;;5007513;28;20186;-71
2021/10/01 05:34:37;;;;;;;2.40;2.30;;;14.00;93.00;;;;;;5002592;28;20430;-71
2021/10/01 05:37:03;;;;;;;3.20;2.97;;;13.90;92.80;;;;;;4996984;28;20468;-71
2021/10/01 05:39:29;;;;;;;3.80;2.63;;;13.90;92.90;;;;;;5004829;28;20186;-70
2021/10/01 05:41:56;;;;;;;2.27;2.17;;;13.70;92.70;;;;;;4998339;28;20418;-75
2021/10/01 05:44:21;;;;;;;4.60;3.80;;;13.60;93.10;;;;;;4995780;28;20422;-69
2021/10/01 05:46:48;;;;;;;2.70;2.50;;;13.60;92.90;;;;;;5011784;28;20425;-68
2021/10/01 05:49:23;;;;;;;4.67;2.40;;;13.50;93.20;;;;;;5011383;28;20421;-70
2021/10/01 05:51:51;;;;;;;2.20;2.00;;;13.40;93.20;;;;;;5012016;28;20845;-69
2021/10/01 05:54:21;;;;;;;2.40;2.30;;;13.20;93.50;;;;;;5009201;28;20432;-69
2021/10/01 05:56:51;;;;;;;2.47;2.27;;;13.20;93.70;;;;;;5011573;28;20463;-69
2021/10/01 05:59:18;;;;;;;2.40;2.30;;;13.20;93.70;;;;;;4994529;28;20411;-68
2021/10/01 06:01:44;;;;;;;3.80;2.20;;;13.10;93.80;;;;;;5012254;28;20834;-69
2021/10/01 06:04:10;;;;;;;3.93;2.63;;;13.10;93.80;;;;;;5015029;28;20497;-73
2021/10/01 06:06:36;;;;;;;3.03;2.93;;;13.10;93.50;;;;;;5007201;28;20433;-68
2021/10/01 06:09:03;;;;;;;2.63;2.33;;;13.00;94.00;;;;;;5014412;28;20415;-68
2021/10/01 06:11:29;;;;;;;3.87;3.60;;;13.10;94.10;;;;;;4999208;28;20182;-68
2021/10/01 06:13:54;;;;;;;3.00;2.80;;;13.10;94.10;;;;;;4996443;28;20509;-68
2021/10/01 06:16:20;;;;;;;2.90;2.70;;;13.00;93.80;;;;;;5001785;28;20182;-68
2021/10/01 06:18:46;;;;;;;3.63;2.40;;;12.90;94.20;;;;;;5011242;28;20247;-68
2021/10/01 06:21:12;;;;;;;3.10;1.57;;;12.90;94.40;;;;;;5005244;28;20184;-68
2021/10/01 06:23:37;;;;;;;2.50;2.30;;;12.90;94.40;;;;;;4997941;28;20192;-68
2021/10/01 06:26:05;;;;;;;2.60;2.40;;;12.90;94.60;;;;;;5012519;28;20431;-68
2021/10/01 06:28:31;;;;;;;2.00;1.90;;;13.00;94.30;;;;;;5014474;28;20221;-68
2021/10/01 06:30:58;;;;;;;4.40;3.17;;;13.20;94.10;;;;;;5015195;28;20421;-68
2021/10/01 06:33:25;;;;;;;2.30;2.10;;;13.20;93.80;;;;;;5014341;28;20516;-68
2021/10/01 06:35:51;;;;;;;2.73;2.10;;;13.10;93.90;;;;;;5014635;28;20824;-68
2021/10/01 06:38:17;;;;;;;4.87;4.37;;;13.20;94.10;;;;;;5014226;28;20455;-68
2021/10/01 06:40:43;;;;;;;2.40;2.30;;;13.20;93.90;;;;;;5011338;28;20175;-68
2021/10/01 06:43:10;;;;;;;2.97;2.23;;;13.30;93.90;;;;;;4994793;28;20177;-75
2021/10/01 06:45:38;;;;;;;2.00;1.90;;;13.50;94.00;;;;;;5012275;28;20183;-68
2021/10/01 08:20:42;;;;;;;2.50;2.30;;;15.80;91.10;;;;;;5001434;28;20859;-72
2021/10/01 08:23:09;;;;;;;2.07;1.97;;;15.90;90.80;;;;;;4999986;28;20421;-72
2021/10/01 08:25:36;;;;;;;3.00;2.80;;;15.90;90.40;;;;;;4993703;28;20437;-72
2021/10/01 08:28:03;;;;;;;3.00;2.80;;;16.00;90.30;;;;;;5004441;28;20424;-71
2021/10/01 08:30:29;;;;;;;2.80;2.70;;;16.00;90.40;;;;;;5007077;28;20828;-72
2021/10/01 08:32:55;;;;;;;4.83;4.40;;;16.10;90.00;;;;;;5004941;28;20433;-73
2021/10/01 08:35:22;;;;;;;3.50;3.30;;;16.10;89.20;;;;;;5012985;28;20512;-72
2021/10/01 08:37:49;;;;;;;2.60;2.40;;;16.10;90.20;;;;;;5006604;28;20477;-72
2021/10/01 08:40:15;;;;;;;2.97;2.67;;;16.30;90.00;;;;;;4991883;28;20419;-73
2021/10/01 08:42:41;;;;;;;3.00;2.80;;;16.30;90.00;;;;;;4993681;28;20418;-72
2021/10/01 08:45:09;;;;;;;4.50;3.27;;;16.40;89.00;;;;;;4993686;28;20508;-72
2021/10/01 08:47:36;;;;;;;2.50;1.87;;;16.50;89.90;;;;;;4992966;28;20415;-72
2021/10/01 08:50:03;;;;;;;2.13;1.90;;;16.50;89.00;;;;;;5000952;28;20760;-72
2021/10/01 08:52:29;;;;;;;2.63;2.07;;;16.60;90.00;;;;;;5012243;28;20406;-72
2021/10/01 08:54:55;;;;;;;2.60;2.40;;;16.70;88.50;;;;;;5013121;28;20499;-72
2021/10/01 08:57:21;;;;;;;4.23;2.73;;;16.70;88.30;;;;;;5012432;28;20485;-72
2021/10/01 08:59:47;;;;;;;4.70;4.40;;;16.80;88.80;;;;;;5013009;28;20933;-72
2021/10/01 09:02:14;;;;;;;2.80;2.60;;;16.80;88.60;;;;;;5012968;28;20893;-72
2021/10/01 09:04:40;;;;;;;2.07;1.63;;;16.80;89.40;;;;;;5009900;28;20226;-73
2021/10/01 09:07:05;;;;;;;2.33;2.23;;;16.90;89.80;;;;;;4998633;28;20514;-72
2021/10/01 09:09:37;;;;;;;1.97;1.87;;;17.00;88.60;;;;;;5003191;28;20420;-72
2021/10/01 09:12:03;;;;;;;1.97;1.87;;;17.00;87.80;;;;;;4998138;28;20185;-72
2021/10/01 09:14:29;;;;;;;1.90;1.80;;;17.20;88.10;;;;;;5000499;28;20423;-72
2021/10/01 09:16:55;;;;;;;2.00;1.90;;;17.30;88.10;;;;;;4993136;28;20513;-72
2021/10/01 09:19:21;;;;;;;3.80;3.47;;;17.50;86.90;;;;;;5010810;28;20183;-72
2021/10/01 09:21:49;;;;;;;2.57;2.33;;;17.70;86.40;;;;;;5012983;28;20175;-72
2021/10/01 09:24:18;;;;;;;3.10;2.40;;;17.90;85.10;;;;;;5012010;28;20418;-73
2021/10/01 09:26:49;;;;;;;2.13;2.03;;;18.10;84.20;;;;;;5003338;28;20780;-71
2021/10/01 09:29:31;;;;;;;4.43;1.90;;;18.10;82.70;;;;;;4992665;28;20434;-73
2021/10/01 09:31:58;;;;;;;3.00;2.90;;;18.20;84.00;;;;;;5008542;28;20437;-72
2021/10/01 09:34:24;;;;;;;2.60;2.40;;;18.30;82.40;;;;;;5014360;28;20406;-72
2021/10/01 09:37:06;;;;;;;3.50;2.90;;;18.40;82.70;;;;;;5016562;28;20959;-72
2021/10/01 09:39:35;;;;;;;5.80;3.57;;;18.40;83.60;;;;;;5007799;28;20207;-72
2021/10/01 09:42:19;;;;;;;2.73;2.57;;;18.50;82.60;;;;;;5005405;28;20420;-72
2021/10/01 09:44:51;;;;;;;3.53;2.87;;;18.60;83.20;;;;;;5016529;28;20414;-72
2021/10/01 09:47:27;;;;;;;2.80;2.70;;;18.80;82.30;;;;;;5015703;28;20501;-73
2021/10/01 09:49:58;;;;;;;2.70;2.50;;;19.10;82.50;;;;;;5015544;28;20456;-73
2021/10/01 09:52:24;;;;;;;2.63;2.43;;;19.40;80.80;;;;;;4996101;28;20409;-72
2021/10/01 09:55:03;;;;;;;2.83;2.60;;;19.50;78.70;;;;;;4996540;28;20413;-72
2021/10/01 09:57:28;;;;;;;2.80;2.53;;;19.70;81.30;;;;;;4996137;28;20496;-73
2021/10/01 09:59:54;;;;;;;2.73;2.23;;;19.90;77.50;;;;;;4996686;28;20399;-72
2021/10/01 10:02:20;;;;;;;2.53;2.33;;;20.00;77.10;;;;;;4994817;28;20191;-73
2021/10/01 10:04:54;;;;;;;2.07;1.97;;;20.20;77.00;;;;;;4996629;28;20246;-72
2021/10/01 10:07:21;;;;;;;3.93;3.50;;;20.40;74.40;;;;;;4996983;28;20266;-73
2021/10/01 10:10:03;;;;;;;3.40;2.17;;;20.50;74.60;;;;;;4996425;28;20585;-73
2021/10/01 10:12:41;;;;;;;2.30;2.17;;;20.70;73.20;;;;;;4995909;28;20509;-73
2021/10/01 10:15:15;;;;;;;2.23;1.90;;;20.80;73.20;;;;;;4996447;28;20399;-72
2021/10/01 10:17:49;;;;;;;2.20;2.10;;;20.90;72.40;;;;;;5007750;28;20511;-72
2021/10/01 10:20:16;;;;;;;3.93;3.73;;;21.10;73.10;;;;;;4996391;28;20465;-72
2021/10/01 10:22:42;;;;;;;2.60;2.50;;;21.30;72.20;;;;;;4995441;28;20457;-73
2021/10/01 10:25:08;;;;;;;2.47;2.37;;;21.50;72.80;;;;;;4995034;28;20411;-72
2021/10/01 10:27:34;;;;;;;3.50;3.40;;;21.80;70.80;;;;;;4999885;28;20457;-72
2021/10/01 10:30:00;;;;;;;2.80;2.60;;;21.90;68.40;;;;;;5005955;28;20422;-72
2021/10/01 10:32:31;;;;;;;2.57;2.37;;;21.60;67.90;;;;;;5009926;28;20692;-73
2021/10/01 10:35:02;;;;;;;2.57;2.37;;;21.60;69.00;;;;;;5014262;28;20538;-73
2021/10/01 10:37:43;;;;;;;2.50;2.20;;;21.70;68.80;;;;;;5010954;28;20549;-73
2021/10/01 10:40:12;;;;;;;4.30;4.00;;;21.70;67.80;;;;;;5002738;28;20529;-72
2021/10/01 10:42:47;;;;;;;4.07;2.67;;;21.60;68.50;;;;;;5013043;28;20779;-73
2021/10/01 10:45:17;;;;;;;4.83;4.50;;;21.90;69.30;;;;;;5008958;28;20748;-72
2021/10/01 10:48:09;;;;;;;3.43;3.33;;;22.10;69.60;;;;;;5010910;28;20935;-73
2021/10/01 10:50:38;;;;;;;2.50;2.30;;;22.30;68.00;;;;;;5004115;28;20406;-72
2021/10/01 10:53:07;;;;;;;2.20;2.10;;;22.30;64.90;;;;;;5014765;28;20434;-72
2021/10/01 10:55:49;;;;;;;3.57;3.37;;;22.20;65.90;;;;;;5013292;28;20472;-73
2021/10/01 10:58:27;;;;;;;3.30;3.10;;;22.10;64.90;;;;;;5011387;28;20471;-72
2021/10/01 11:00:56;;;;;;;2.67;2.43;;;21.90;65.50;;;;;;5010260;28;20513;-72
2021/10/01 11:03:35;;;;;;;3.97;3.77;;;21.80;66.00;;;;;;4994426;28;20466;-73
2021/10/01 11:06:10;;;;;;;4.43;2.93;;;21.90;66.80;;;;;;4977961;28;20418;-73
2021/10/01 11:08:45;;;;;;;2.83;2.73;;;22.20;66.50;;;;;;4993923;28;20431;-72
2021/10/01 11:11:29;;;;;;;2.80;2.30;;;22.40;67.60;;;;;;4990712;28;20513;-73
2021/10/01 11:14:18;;;;;;;3.40;3.20;;;22.00;63.20;;;;;;4977856;28;20419;-72
2021/10/01 11:17:07;;;;;;;3.23;3.03;;;21.70;64.30;;;;;;4994231;28;20964;-72
2021/10/01 11:19:48;;;;;;;2.87;2.77;;;21.60;65.00;;;;;;4994180;28;20430;-72
2021/10/01 11:22:31;;;;;;;3.57;2.90;;;21.60;65.60;;;;;;4995115;28;20896;-72
2021/10/01 11:25:01;;;;;;;3.57;3.27;;;21.70;65.60;;;;;;4984270;28;20517;-72
2021/10/01 11:27:28;;;;;;;2.97;2.80;;;21.50;66.00;;;;;;4990747;28;20440;-74
2021/10/01 11:29:54;;;;;;;2.90;2.80;;;21.30;65.90;;;;;;4994569;28;20441;-72
2021/10/01 11:32:26;;;;;;;4.17;2.40;;;21.10;66.10;;;;;;4993871;28;20919;-72
2021/10/01 11:35:02;;;;;;;2.70;2.50;;;21.10;66.50;;;;;;4993957;28;20175;-72
2021/10/01 11:37:39;;;;;;;4.10;2.47;;;21.10;66.40;;;;;;4992797;28;20945;-73
2021/10/01 11:40:17;;;;;;;2.60;2.40;;;21.00;66.80;;;;;;4993681;28;20433;-72
2021/10/01 11:42:44;;;;;;;2.90;2.73;;;21.00;64.60;;;;;;4993401;28;20932;-72
2021/10/01 11:45:17;;;;;;;13.43;2.60;;;20.90;68.10;;;;;;4981377;28;20428;-73
2021/10/01 11:48:02;;;;;;;2.10;2.00;;;21.10;67.30;;;;;;4993003;28;20761;-72
2021/10/01 11:50:47;;;;;;;4.90;2.73;;;21.20;64.00;;;;;;4993982;28;20407;-73
2021/10/01 11:53:30;;;;;;;2.90;2.50;;;21.10;61.50;;;;;;4993375;28;20826;-76
2021/10/01 11:55:58;;;;;;;12.37;2.60;;;21.20;64.80;;;;;;4992751;28;20427;-76
2021/10/01 11:58:26;;;;;;;2.73;2.60;;;21.30;66.70;;;;;;4991045;28;20943;-75
2021/10/01 12:00:52;;;;;;;2.10;2.00;;;21.50;67.10;;;;;;4989057;28;20950;-75
2021/10/01 12:03:19;;;;;;;2.63;2.40;;;21.40;66.70;;;;;;4980633;28;20458;-77
2021/10/01 12:05:51;;;;;;;2.53;2.33;;;21.10;62.80;;;;;;4992021;28;21043;-74
2021/10/01 12:08:21;;;;;;;3.73;3.63;;;20.90;67.00;;;;;;4993336;28;20426;-74
2021/10/01 12:10:54;;;;;;;4.23;3.80;;;20.80;66.20;;;;;;4986666;28;21021;-75
2021/10/01 12:13:25;;;;;;;3.37;3.17;;;20.80;69.40;;;;;;4976265;28;20417;-75
2021/10/01 12:16:00;;;;;;;2.43;2.30;;;20.70;67.20;;;;;;4993096;28;20419;-75
2021/10/01 12:18:35;;;;;;;1.53;1.43;;;20.80;67.70;;;;;;4987187;28;20458;-78
2021/10/01 12:21:08;;;;;;;5.10;4.87;;;20.80;69.90;;;;;;4993616;28;20928;-75
2021/10/01 12:23:46;;;;;;;2.43;2.27;;;20.80;68.20;;;;;;4975527;28;20462;-75
2021/10/01 12:26:25;;;;;;;2.50;2.40;;;20.80;67.40;;;;;;4988718;28;20415;-75
2021/10/01 12:28:59;;;;;;;2.90;2.70;;;20.80;66.90;;;;;;4993112;28;20399;-75
2021/10/01 12:31:29;;;;;;;2.40;2.30;;;20.90;69.70;;;;;;4993564;28;20434;-77
2021/10/01 12:33:59;;;;;;;2.30;2.20;;;20.90;71.00;;;;;;4993339;28;20477;-76
2021/10/01 12:36:26;;;;;;;3.67;2.60;;;20.90;70.10;;;;;;4993469;28;20743;-75
2021/10/01 12:38:55;;;;;;;2.30;2.20;;;21.00;67.90;;;;;;4992321;28;20459;-75
2021/10/01 12:41:22;;;;;;;2.70;2.60;;;20.80;70.60;;;;;;4969999;28;20412;-75
2021/10/01 12:43:53;;;;;;;3.13;2.63;;;20.80;69.50;;;;;;4989395;28;20430;-75
2021/10/01 12:46:41;;;;;;;3.43;3.33;;;20.90;68.90;;;;;;4992340;28;20426;-76
2021/10/01 12:49:17;;;;;;;2.67;2.50;;;20.80;66.90;;;;;;4961549;28;20419;-75
2021/10/01 12:51:45;;;;;;;2.70;2.30;;;20.60;65.80;;;;;;4981653;28;20511;-75
2021/10/01 12:54:25;;;;;;;3.40;2.80;;;20.50;68.40;;;;;;4974137;28;20418;-75
2021/10/01 12:57:17;;;;;;;2.70;2.50;;;20.30;66.40;;;;;;4974942;28;20403;-75
2021/10/01 12:59:46;;;;;;;2.30;2.10;;;20.20;65.90;;;;;;4982010;28;21428;-75
2021/10/01 13:02:15;;;;;;;5.50;4.07;;;20.20;68.20;;;;;;4980943;28;20426;-76
2021/10/01 13:04:47;;;;;;;2.40;2.30;;;20.20;67.50;;;;;;4994128;28;20493;-76
2021/10/01 13:07:30;;;;;;;4.63;2.77;;;20.20;67.00;;;;;;5007575;28;20423;-75
2021/10/01 13:09:59;;;;;;;3.33;2.60;;;20.20;69.30;;;;;;4992401;28;20395;-75
2021/10/01 13:12:37;;;;;;;31.10;24.97;;;20.30;72.10;;;;;;5005099;28;20418;-75
2021/10/01 13:15:30;;;;;;;5.47;4.90;;;20.30;69.20;;;;;;5012671;28;20417;-76
2021/10/01 13:18:00;;;;;;;3.30;3.00;;;20.20;69.20;;;;;;5010710;28;20573;-75
2021/10/01 13:20:28;;;;;;;3.60;3.30;;;20.10;65.60;;;;;;5011737;28;20829;-75
2021/10/01 13:23:06;;;;;;;5.00;4.80;;;20.00;68.30;;;;;;5001623;28;20445;-75
2021/10/01 13:25:52;;;;;;;1.90;1.80;;;20.10;69.90;;;;;;5009054;28;20513;-76
2021/10/01 13:28:20;;;;;;;3.27;2.30;;;19.90;67.50;;;;;;5012279;28;20414;-73
2021/10/01 13:30:53;;;;;;;5.10;4.90;;;19.80;67.70;;;;;;5009691;28;20925;-73
2021/10/01 13:33:22;;;;;;;3.87;3.77;;;19.40;68.20;;;;;;5012420;28;20493;-73
2021/10/01 13:35:48;;;;;;;3.17;2.40;;;19.30;70.10;;;;;;5010962;28;20421;-71
2021/10/01 13:38:14;;;;;;;2.07;1.97;;;19.20;67.10;;;;;;5011476;28;20810;-71
2021/10/01 13:40:41;;;;;;;2.70;2.60;;;19.20;66.00;;;;;;5011478;28;20198;-70
2021/10/01 13:43:07;;;;;;;3.00;2.77;;;19.20;68.60;;;;;;4992996;28;20172;-71
2021/10/01 13:45:34;;;;;;;2.03;1.93;;;19.30;67.00;;;;;;4991116;28;20835;-71
2021/10/01 13:48:01;;;;;;;2.20;2.10;;;19.40;67.80;;;;;;4993003;28;20435;-72
2021/10/01 13:50:27;;;;;;;2.67;2.57;;;19.40;67.10;;;;;;5006615;28;20421;-73
2021/10/01 13:52:53;;;;;;;2.57;2.37;;;19.40;66.50;;;;;;5010543;28;20941;-73
2021/10/01 13:55:19;;;;;;;2.50;2.40;;;19.40;65.60;;;;;;5011022;28;20426;-72
2021/10/01 13:57:47;;;;;;;2.90;2.70;;;19.40;66.30;;;;;;5011014;28;20662;-72
2021/10/01 14:00:15;;;;;;;2.80;2.60;;;19.20;66.00;;;;;;5012031;28;20809;-72
2021/10/01 14:02:41;;;;;;;2.87;2.77;;;19.30;69.00;;;;;;5011664;28;20434;-72
2021/10/01 14:05:10;;;;;;;3.30;3.13;;;19.30;68.00;;;;;;5011633;28;20464;-72
2021/10/01 14:07:38;;;;;;;2.40;2.27;;;19.40;68.00;;;;;;5002098;28;20988;-72
2021/10/01 14:10:06;;;;;;;3.70;3.50;;;19.50;68.30;;;;;;4996728;28;20517;-73
2021/10/01 14:12:32;;;;;;;2.10;1.63;;;19.50;67.70;;;;;;5010880;28;20561;-75
2021/10/01 14:14:58;;;;;;;4.70;4.30;;;19.60;69.60;;;;;;5010712;28;20548;-72
2021/10/01 14:17:25;;;;;;;2.67;2.47;;;19.60;70.60;;;;;;5011712;28;20597;-71
2021/10/01 14:19:51;;;;;;;2.20;2.00;;;19.40;67.50;;;;;;5012851;28;20175;-71
2021/10/01 14:22:17;;;;;;;2.90;2.70;;;19.30;67.20;;;;;;5015676;28;20868;-71
2021/10/01 14:24:43;;;;;;;5.40;5.10;;;19.30;67.90;;;;;;5012372;28;20456;-71
2021/10/01 14:27:09;;;;;;;4.00;2.67;;;19.40;68.60;;;;;;5015340;28;20497;-72
2021/10/01 14:29:35;;;;;;;3.07;2.87;;;19.40;68.80;;;;;;5014707;28;20185;-76
2021/10/01 14:32:02;;;;;;;2.60;2.50;;;19.40;67.30;;;;;;5015280;28;20500;-71
2021/10/01 14:34:28;;;;;;;4.77;1.80;;;19.20;67.70;;;;;;5015555;28;20449;-71